Time,TemperatureF,DewpointF,PressureIn,WindDirection,WindDirectionDegrees,WindSpeedMPH,WindSpeedGustMPH,Humidity,HourlyPrecipIn,Conditions,Clouds,dailyrainin,SoftwareType,DateUTC
2013-01-11 00:03:00,32.7,32.2,29.61,South,171,4.0,7.0,98,0.00,,,0.00,vanprod-2.3,2013-01-11 06:03:00,
2013-01-11 00:08:00,32.7,32.2,29.61,South,170,4.0,8.0,98,0.00,,,0.00,vanprod-2.3,2013-01-11 06:08:00,
2013-01-11 00:13:00,32.9,32.4,29.60,SSE,166,4.0,7.0,98,0.00,,,0.00,vanprod-2.3,2013-01-11 06:13:00,
2013-01-11 00:18:00,32.9,32.4,29.60,SE,124,4.0,5.0,98,0.00,,,0.00,vanprod-2.3,2013-01-11 06:18:00,
2013-01-11 00:23:00,32.9,32.4,29.60,SE,136,2.0,3.0,98,0.00,,,0.00,vanprod-2.3,2013-01-11 06:23:00,
2013-01-11 00:28:00,33.0,32.5,29.60,SE,140,3.0,5.0,98,0.00,,,0.00,vanprod-2.3,2013-01-11 06:28:00,
2013-01-11 00:33:00,33.0,32.5,29.60,South,173,4.0,5.0,98,0.00,,,0.00,vanprod-2.3,2013-01-11 06:33:00,
2013-01-11 00:38:00,33.0,32.5,29.59,SE,136,3.0,5.0,98,0.00,,,0.00,vanprod-2.3,2013-01-11 06:38:00,
2013-01-11 00:43:00,33.0,32.5,29.59,SSE,153,4.0,7.0,98,0.00,,,0.00,vanprod-2.3,2013-01-11 06:43:00,
2013-01-11 00:48:00,33.0,32.5,29.59,South,179,4.0,4.0,98,0.00,,,0.00,vanprod-2.3,2013-01-11 06:48:00,
2013-01-11 00:53:00,33.2,32.7,29.58,SE,144,3.0,4.0,98,0.00,,,0.00,vanprod-2.3,2013-01-11 06:53:00,
2013-01-11 00:58:00,33.0,32.5,29.58,SSE,152,3.0,4.0,98,0.00,,,0.00,vanprod-2.3,2013-01-11 06:58:00,
2013-01-11 01:03:00,33.0,32.5,29.58,South,173,2.0,2.0,98,0.00,,,0.00,vanprod-2.3,2013-01-11 07:03:00,
2013-01-11 01:08:00,33.0,32.5,29.58,SSE,160,4.0,6.0,98,0.00,,,0.00,vanprod-2.3,2013-01-11 07:08:00,
2013-01-11 01:13:00,33.2,32.7,29.58,SSE,159,4.0,4.0,98,0.00,,,0.00,vanprod-2.3,2013-01-11 07:13:00,
2013-01-11 01:18:00,33.2,32.7,29.57,SSE,159,3.0,5.0,98,0.00,,,0.00,vanprod-2.3,2013-01-11 07:18:00,
2013-01-11 01:23:00,33.2,32.7,29.58,South,175,5.0,7.0,98,0.00,,,0.00,vanprod-2.3,2013-01-11 07:23:00,
2013-01-11 01:28:00,33.2,32.7,29.58,South,175,5.0,5.0,98,0.00,,,0.00,vanprod-2.3,2013-01-11 07:28:00,
2013-01-11 01:33:00,33.2,32.7,29.58,South,178,2.0,3.0,98,0.01,,,0.01,vanprod-2.3,2013-01-11 07:33:00,
2013-01-11 01:38:00,33.3,32.8,29.58,SSE,157,3.0,6.0,98,0.01,,,0.01,vanprod-2.3,2013-01-11 07:38:00,
2013-01-11 01:43:00,33.3,32.8,29.58,South,169,4.0,11.0,98,0.01,,,0.01,vanprod-2.3,2013-01-11 07:43:00,
2013-01-11 01:48:00,33.3,32.8,29.57,SSE,162,4.0,5.0,98,0.01,,,0.01,vanprod-2.3,2013-01-11 07:48:00,
2013-01-11 01:53:00,33.2,32.7,29.57,South,175,4.0,7.0,98,0.01,,,0.01,vanprod-2.3,2013-01-11 07:53:00,
2013-01-11 01:58:00,33.2,32.7,29.57,SSW,196,3.0,8.0,98,0.01,,,0.01,vanprod-2.3,2013-01-11 07:58:00,
2013-01-11 02:03:00,33.2,32.7,29.57,South,179,5.0,6.0,98,0.01,,,0.01,vanprod-2.3,2013-01-11 08:03:00,
2013-01-11 02:08:00,33.2,32.7,29.57,SSE,155,4.0,4.0,98,0.01,,,0.01,vanprod-2.3,2013-01-11 08:08:00,
2013-01-11 02:13:00,33.3,32.8,29.57,SSE,152,3.0,4.0,98,0.01,,,0.01,vanprod-2.3,2013-01-11 08:13:00,
2013-01-11 02:18:00,33.3,32.8,29.57,ESE,122,3.0,6.0,98,0.01,,,0.01,vanprod-2.3,2013-01-11 08:18:00,
2013-01-11 02:23:00,33.3,32.8,29.57,South,180,3.0,3.0,98,0.01,,,0.01,vanprod-2.3,2013-01-11 08:23:00,
2013-01-11 02:28:00,33.3,32.8,29.57,South,180,4.0,7.0,98,0.01,,,0.01,vanprod-2.3,2013-01-11 08:28:00,
2013-01-11 02:33:00,33.3,32.8,29.57,ESE,106,2.0,2.0,98,0.00,,,0.01,vanprod-2.3,2013-01-11 08:33:00,
2013-01-11 02:38:00,33.3,32.8,29.57,SSE,165,4.0,6.0,98,0.00,,,0.01,vanprod-2.3,2013-01-11 08:38:00,
2013-01-11 02:43:00,33.5,33.0,29.57,SE,144,4.0,4.0,98,0.00,,,0.01,vanprod-2.3,2013-01-11 08:43:00,
2013-01-11 02:48:00,33.5,33.0,29.57,South,173,4.0,4.0,98,0.00,,,0.01,vanprod-2.3,2013-01-11 08:48:00,
2013-01-11 02:53:00,33.5,33.0,29.57,SSE,150,5.0,7.0,98,0.00,,,0.01,vanprod-2.3,2013-01-11 08:53:00,
2013-01-11 02:58:00,33.5,33.0,29.57,South,174,4.0,5.0,98,0.00,,,0.01,vanprod-2.3,2013-01-11 08:58:00,
2013-01-11 03:03:00,33.5,33.0,29.57,SSE,148,3.0,3.0,98,0.00,,,0.01,vanprod-2.3,2013-01-11 09:03:00,
2013-01-11 03:08:00,33.5,33.0,29.56,SSE,166,4.0,7.0,98,0.00,,,0.01,vanprod-2.3,2013-01-11 09:08:00,
2013-01-11 03:13:00,33.5,33.0,29.56,SSE,166,3.0,4.0,98,0.00,,,0.01,vanprod-2.3,2013-01-11 09:13:00,
2013-01-11 03:18:00,33.5,33.0,29.56,South,172,3.0,3.0,98,0.00,,,0.01,vanprod-2.3,2013-01-11 09:18:00,
2013-01-11 03:23:00,33.5,33.0,29.55,SSE,148,3.0,7.0,98,0.00,,,0.01,vanprod-2.3,2013-01-11 09:23:00,
2013-01-11 03:28:00,33.5,33.0,29.55,SE,134,4.0,6.0,98,0.00,,,0.01,vanprod-2.3,2013-01-11 09:28:00,
2013-01-11 03:33:00,33.5,33.0,29.55,SE,142,6.0,6.0,98,0.00,,,0.01,vanprod-2.3,2013-01-11 09:33:00,
2013-01-11 03:38:00,33.5,33.0,29.54,SSE,165,4.0,4.0,98,0.00,,,0.01,vanprod-2.3,2013-01-11 09:38:00,
2013-01-11 03:43:00,33.5,33.0,29.54,SSE,168,5.0,5.0,98,0.00,,,0.01,vanprod-2.3,2013-01-11 09:43:00,
2013-01-11 03:48:00,33.5,33.0,29.54,SSE,166,5.0,7.0,98,0.00,,,0.01,vanprod-2.3,2013-01-11 09:48:00,
2013-01-11 03:53:00,33.5,33.0,29.54,SSE,167,4.0,8.0,98,0.00,,,0.01,vanprod-2.3,2013-01-11 09:53:00,
2013-01-11 03:58:00,33.6,33.1,29.54,SSE,158,4.0,5.0,98,0.00,,,0.01,vanprod-2.3,2013-01-11 09:58:00,
2013-01-11 04:03:00,33.5,33.0,29.54,South,172,4.0,4.0,98,0.00,,,0.01,vanprod-2.3,2013-01-11 10:03:00,
2013-01-11 04:08:00,33.5,33.0,29.54,SSE,158,1.0,3.0,98,0.00,,,0.01,vanprod-2.3,2013-01-11 10:08:00,
2013-01-11 04:13:00,33.5,33.0,29.53,SSE,168,4.0,4.0,98,0.00,,,0.01,vanprod-2.3,2013-01-11 10:13:00,
2013-01-11 04:18:00,33.5,33.0,29.53,SSE,147,3.0,3.0,98,0.00,,,0.01,vanprod-2.3,2013-01-11 10:18:00,
2013-01-11 04:23:00,33.5,33.0,29.53,SSE,155,4.0,4.0,98,0.00,,,0.01,vanprod-2.3,2013-01-11 10:23:00,
2013-01-11 04:28:00,33.6,33.1,29.53,South,171,4.0,6.0,98,0.00,,,0.01,vanprod-2.3,2013-01-11 10:28:00,
2013-01-11 04:33:00,33.6,33.1,29.52,South,172,5.0,6.0,98,0.00,,,0.01,vanprod-2.3,2013-01-11 10:33:00,
2013-01-11 04:38:00,33.6,33.1,29.53,SSW,195,4.0,4.0,98,0.00,,,0.01,vanprod-2.3,2013-01-11 10:38:00,
2013-01-11 04:43:00,33.6,33.1,29.52,SSE,161,2.0,2.0,98,0.00,,,0.01,vanprod-2.3,2013-01-11 10:43:00,
2013-01-11 04:48:00,33.6,33.1,29.52,SSE,165,5.0,5.0,98,0.00,,,0.01,vanprod-2.3,2013-01-11 10:48:00,
2013-01-11 04:53:00,33.6,33.1,29.52,SE,143,3.0,3.0,98,0.00,,,0.01,vanprod-2.3,2013-01-11 10:53:00,
2013-01-11 04:58:00,33.6,33.1,29.51,SE,143,2.0,2.0,98,0.00,,,0.01,vanprod-2.3,2013-01-11 10:58:00,
2013-01-11 05:03:00,33.6,33.1,29.51,SSE,164,3.0,5.0,98,0.00,,,0.01,vanprod-2.3,2013-01-11 11:03:00,
2013-01-11 05:08:00,33.6,33.1,29.51,South,176,2.0,5.0,98,0.00,,,0.01,vanprod-2.3,2013-01-11 11:08:00,
2013-01-11 05:13:00,33.6,33.1,29.52,SSE,168,5.0,5.0,98,0.00,,,0.01,vanprod-2.3,2013-01-11 11:13:00,
2013-01-11 05:18:00,33.6,33.1,29.52,SSE,167,3.0,3.0,98,0.00,,,0.01,vanprod-2.3,2013-01-11 11:18:00,
2013-01-11 05:23:00,33.5,33.0,29.52,South,176,4.0,4.0,98,0.00,,,0.01,vanprod-2.3,2013-01-11 11:23:00,
2013-01-11 05:28:00,33.5,33.0,29.52,SSE,153,2.0,3.0,98,0.00,,,0.01,vanprod-2.3,2013-01-11 11:28:00,
2013-01-11 05:33:00,33.3,32.8,29.51,SSE,152,3.0,3.0,98,0.00,,,0.01,vanprod-2.3,2013-01-11 11:33:00,
2013-01-11 05:38:00,33.3,32.8,29.51,SSE,162,2.0,6.0,98,0.00,,,0.01,vanprod-2.3,2013-01-11 11:38:00,
2013-01-11 05:43:00,33.5,33.0,29.51,SSE,155,3.0,3.0,98,0.00,,,0.01,vanprod-2.3,2013-01-11 11:43:00,
2013-01-11 05:48:00,33.3,32.8,29.50,SSE,155,3.0,5.0,98,0.00,,,0.01,vanprod-2.3,2013-01-11 11:48:00,
2013-01-11 05:53:00,33.3,32.8,29.50,SSE,165,2.0,3.0,98,0.00,,,0.01,vanprod-2.3,2013-01-11 11:53:00,
2013-01-11 05:58:00,33.3,32.8,29.50,SSE,167,1.0,3.0,98,0.00,,,0.01,vanprod-2.3,2013-01-11 11:58:00,
2013-01-11 06:03:00,33.3,32.8,29.50,SSE,166,3.0,6.0,98,0.00,,,0.01,vanprod-2.3,2013-01-11 12:03:00,
2013-01-11 06:08:00,33.3,32.8,29.50,South,175,1.0,0.0,98,0.00,,,0.01,vanprod-2.3,2013-01-11 12:08:00,
2013-01-11 06:13:00,33.2,32.7,29.50,South,175,0.0,3.0,98,0.01,,,0.02,vanprod-2.3,2013-01-11 12:13:00,
2013-01-11 06:18:00,33.3,32.8,29.49,SSE,155,2.0,3.0,98,0.01,,,0.02,vanprod-2.3,2013-01-11 12:18:00,
2013-01-11 06:23:00,33.3,32.8,29.49,ESE,123,2.0,0.0,98,0.02,,,0.03,vanprod-2.3,2013-01-11 12:23:00,
2013-01-11 06:28:00,33.3,33.0,29.49,ESE,123,1.0,0.0,99,0.02,,,0.03,vanprod-2.3,2013-01-11 12:28:00,
2013-01-11 06:33:00,33.5,33.2,29.50,SE,128,2.0,3.0,99,0.02,,,0.03,vanprod-2.3,2013-01-11 12:33:00,
2013-01-11 06:38:00,33.5,33.2,29.49,SSE,148,2.0,0.0,99,0.02,,,0.03,vanprod-2.3,2013-01-11 12:38:00,
2013-01-11 06:43:00,33.5,33.2,29.49,SSE,148,1.0,2.0,99,0.02,,,0.03,vanprod-2.3,2013-01-11 12:43:00,
2013-01-11 06:48:00,33.5,33.2,29.49,SSE,148,1.0,1.0,99,0.02,,,0.03,vanprod-2.3,2013-01-11 12:48:00,
2013-01-11 06:53:00,33.5,33.2,29.49,SSE,148,1.0,5.0,99,0.02,,,0.03,vanprod-2.3,2013-01-11 12:53:00,
2013-01-11 06:58:00,33.6,33.3,29.49,SSE,167,1.0,3.0,99,0.02,,,0.03,vanprod-2.3,2013-01-11 12:58:00,
2013-01-11 07:03:00,33.6,33.3,29.49,SSE,168,2.0,5.0,99,0.02,,,0.03,vanprod-2.3,2013-01-11 13:03:00,
2013-01-11 07:08:00,33.6,33.3,29.49,SSE,167,2.0,6.0,99,0.02,,,0.03,vanprod-2.3,2013-01-11 13:08:00,
2013-01-11 07:13:00,33.6,33.3,29.49,SSE,149,3.0,5.0,99,0.01,,,0.03,vanprod-2.3,2013-01-11 13:13:00,
2013-01-11 07:18:00,33.6,33.3,29.49,South,172,4.0,7.0,99,0.01,,,0.03,vanprod-2.3,2013-01-11 13:18:00,
2013-01-11 07:23:00,33.6,33.3,29.48,SSE,161,1.0,0.0,99,0.00,,,0.03,vanprod-2.3,2013-01-11 13:23:00,
2013-01-11 07:28:00,33.8,33.5,29.49,SSE,161,2.0,2.0,99,0.00,,,0.03,vanprod-2.3,2013-01-11 13:28:00,
2013-01-11 07:33:00,33.8,33.5,29.48,SSE,154,2.0,2.0,99,0.00,,,0.03,vanprod-2.3,2013-01-11 13:33:00,
2013-01-11 07:38:00,33.8,33.5,29.49,South,182,2.0,4.0,99,0.00,,,0.03,vanprod-2.3,2013-01-11 13:38:00,
2013-01-11 07:43:00,33.8,33.5,29.49,South,189,3.0,6.0,99,0.00,,,0.03,vanprod-2.3,2013-01-11 13:43:00,
2013-01-11 07:48:00,33.9,33.6,29.49,SSE,164,3.0,3.0,99,0.00,,,0.03,vanprod-2.3,2013-01-11 13:48:00,
2013-01-11 07:53:00,33.8,33.5,29.49,SSE,164,2.0,2.0,99,0.00,,,0.03,vanprod-2.3,2013-01-11 13:53:00,
2013-01-11 07:58:00,33.8,33.5,29.49,SSE,162,1.0,0.0,99,0.00,,,0.03,vanprod-2.3,2013-01-11 13:58:00,
2013-01-11 08:03:00,33.8,33.5,29.49,SSE,162,3.0,3.0,99,0.00,,,0.03,vanprod-2.3,2013-01-11 14:03:00,
2013-01-11 08:08:00,33.8,33.5,29.49,SSE,162,2.0,0.0,99,0.00,,,0.03,vanprod-2.3,2013-01-11 14:08:00,
2013-01-11 08:13:00,33.8,33.5,29.49,SSE,162,2.0,2.0,99,0.00,,,0.03,vanprod-2.3,2013-01-11 14:13:00,
2013-01-11 08:18:00,33.8,33.5,29.49,SSE,163,3.0,4.0,99,0.00,,,0.03,vanprod-2.3,2013-01-11 14:18:00,
2013-01-11 08:23:00,33.8,33.5,29.49,SSE,164,2.0,2.0,99,0.00,,,0.03,vanprod-2.3,2013-01-11 14:23:00,
2013-01-11 08:28:00,33.8,33.5,29.50,SSE,167,3.0,4.0,99,0.00,,,0.03,vanprod-2.3,2013-01-11 14:28:00,
2013-01-11 08:33:00,33.8,33.5,29.50,SSW,192,3.0,3.0,99,0.00,,,0.03,vanprod-2.3,2013-01-11 14:33:00,
2013-01-11 08:38:00,33.8,33.5,29.49,SSE,154,3.0,3.0,99,0.00,,,0.03,vanprod-2.3,2013-01-11 14:38:00,
2013-01-11 08:43:00,33.8,33.5,29.49,SSE,156,2.0,5.0,99,0.00,,,0.03,vanprod-2.3,2013-01-11 14:43:00,
2013-01-11 08:48:00,33.8,33.5,29.49,South,172,3.0,3.0,99,0.00,,,0.03,vanprod-2.3,2013-01-11 14:48:00,
2013-01-11 08:53:00,33.8,33.5,29.49,SSE,164,3.0,5.0,99,0.00,,,0.03,vanprod-2.3,2013-01-11 14:53:00,
2013-01-11 08:58:00,33.8,33.5,29.49,South,175,1.0,2.0,99,0.00,,,0.03,vanprod-2.3,2013-01-11 14:58:00,
2013-01-11 09:03:00,33.8,33.5,29.49,SE,141,3.0,3.0,99,0.00,,,0.03,vanprod-2.3,2013-01-11 15:03:00,
2013-01-11 09:08:00,33.8,33.5,29.49,SSE,166,4.0,5.0,99,0.00,,,0.03,vanprod-2.3,2013-01-11 15:08:00,
2013-01-11 09:13:00,33.9,33.6,29.49,South,172,3.0,3.0,99,0.00,,,0.03,vanprod-2.3,2013-01-11 15:13:00,
2013-01-11 09:18:00,33.9,33.6,29.49,SSE,168,3.0,3.0,99,0.00,,,0.03,vanprod-2.3,2013-01-11 15:18:00,
2013-01-11 09:23:00,33.9,33.6,29.49,SSE,168,2.0,3.0,99,0.00,,,0.03,vanprod-2.3,2013-01-11 15:23:00,
2013-01-11 09:28:00,33.9,33.6,29.49,SSE,167,4.0,4.0,99,0.00,,,0.03,vanprod-2.3,2013-01-11 15:28:00,
2013-01-11 09:33:00,33.8,33.5,29.49,South,174,3.0,4.0,99,0.00,,,0.03,vanprod-2.3,2013-01-11 15:33:00,
2013-01-11 09:38:00,33.8,33.5,29.49,South,174,2.0,2.0,99,0.00,,,0.03,vanprod-2.3,2013-01-11 15:38:00,
2013-01-11 09:43:00,33.8,33.5,29.49,South,174,2.0,2.0,99,0.00,,,0.03,vanprod-2.3,2013-01-11 15:43:00,
2013-01-11 09:48:00,33.9,33.6,29.49,South,174,2.0,2.0,99,0.00,,,0.03,vanprod-2.3,2013-01-11 15:48:00,
2013-01-11 09:53:00,33.9,33.6,29.48,South,174,1.0,2.0,99,0.00,,,0.03,vanprod-2.3,2013-01-11 15:53:00,
2013-01-11 09:58:00,34.1,33.8,29.47,South,172,2.0,2.0,99,0.00,,,0.03,vanprod-2.3,2013-01-11 15:58:00,
2013-01-11 10:03:00,34.1,33.8,29.47,South,169,1.0,0.0,99,0.00,,,0.03,vanprod-2.3,2013-01-11 16:03:00,
2013-01-11 10:08:00,34.1,33.8,29.47,South,186,2.0,2.0,99,0.00,,,0.03,vanprod-2.3,2013-01-11 16:08:00,
2013-01-11 10:13:00,34.1,33.8,29.47,South,184,2.0,5.0,99,0.00,,,0.03,vanprod-2.3,2013-01-11 16:13:00,
2013-01-11 10:18:00,34.1,33.8,29.47,SSW,202,3.0,3.0,99,0.00,,,0.03,vanprod-2.3,2013-01-11 16:18:00,
2013-01-11 10:23:00,34.1,33.8,29.47,South,174,3.0,3.0,99,0.00,,,0.03,vanprod-2.3,2013-01-11 16:23:00,
2013-01-11 10:28:00,34.2,33.9,29.47,SSE,152,3.0,3.0,99,0.00,,,0.03,vanprod-2.3,2013-01-11 16:28:00,
2013-01-11 10:33:00,34.2,33.9,29.47,SSE,156,1.0,1.0,99,0.00,,,0.03,vanprod-2.3,2013-01-11 16:33:00,
2013-01-11 10:38:00,34.2,33.9,29.47,SSE,162,4.0,4.0,99,0.00,,,0.03,vanprod-2.3,2013-01-11 16:38:00,
2013-01-11 10:43:00,34.2,33.9,29.46,SSE,150,2.0,2.0,99,0.00,,,0.03,vanprod-2.3,2013-01-11 16:43:00,
2013-01-11 10:48:00,34.4,34.1,29.46,SSE,163,2.0,5.0,99,0.00,,,0.03,vanprod-2.3,2013-01-11 16:48:00,
2013-01-11 10:53:00,34.4,34.1,29.46,SSE,162,3.0,3.0,99,0.00,,,0.03,vanprod-2.3,2013-01-11 16:53:00,
2013-01-11 10:58:00,34.5,34.2,29.46,South,176,3.0,3.0,99,0.00,,,0.03,vanprod-2.3,2013-01-11 16:58:00,
2013-01-11 11:03:00,34.7,34.4,29.46,SSE,164,4.0,4.0,99,0.00,,,0.03,vanprod-2.3,2013-01-11 17:03:00,
2013-01-11 11:08:00,34.7,34.4,29.46,SSE,151,2.0,2.0,99,0.00,,,0.03,vanprod-2.3,2013-01-11 17:08:00,
2013-01-11 11:13:00,34.7,34.4,29.45,SSE,167,2.0,2.0,99,0.00,,,0.03,vanprod-2.3,2013-01-11 17:13:00,
2013-01-11 11:18:00,34.8,34.5,29.45,SSE,168,3.0,3.0,99,0.00,,,0.03,vanprod-2.3,2013-01-11 17:18:00,
2013-01-11 11:23:00,34.8,34.5,29.45,South,171,1.0,2.0,99,0.00,,,0.03,vanprod-2.3,2013-01-11 17:23:00,
2013-01-11 11:28:00,34.8,34.5,29.45,South,171,2.0,3.0,99,0.00,,,0.03,vanprod-2.3,2013-01-11 17:28:00,
2013-01-11 11:33:00,34.8,34.5,29.45,South,173,3.0,4.0,99,0.00,,,0.03,vanprod-2.3,2013-01-11 17:33:00,
2013-01-11 11:38:00,34.7,34.4,29.44,SSW,192,5.0,6.0,99,0.00,,,0.03,vanprod-2.3,2013-01-11 17:38:00,
2013-01-11 11:43:00,34.7,34.4,29.44,South,175,3.0,3.0,99,0.00,,,0.03,vanprod-2.3,2013-01-11 17:43:00,
2013-01-11 11:48:00,34.7,34.4,29.44,SSE,162,4.0,5.0,99,0.00,,,0.03,vanprod-2.3,2013-01-11 17:48:00,
2013-01-11 11:53:00,34.8,34.5,29.44,South,173,5.0,5.0,99,0.00,,,0.03,vanprod-2.3,2013-01-11 17:53:00,
2013-01-11 11:58:00,34.8,34.5,29.44,South,172,3.0,3.0,99,0.00,,,0.03,vanprod-2.3,2013-01-11 17:58:00,
2013-01-11 12:03:00,34.8,34.5,29.43,SSE,157,4.0,4.0,99,0.00,,,0.03,vanprod-2.3,2013-01-11 18:03:00,
2013-01-11 12:08:00,35.0,34.7,29.44,ESE,112,3.0,3.0,99,0.00,,,0.03,vanprod-2.3,2013-01-11 18:08:00,
2013-01-11 12:13:00,35.0,34.7,29.43,SSE,162,5.0,5.0,99,0.00,,,0.03,vanprod-2.3,2013-01-11 18:13:00,
2013-01-11 12:18:00,34.8,34.5,29.43,SSE,165,2.0,2.0,99,0.00,,,0.03,vanprod-2.3,2013-01-11 18:18:00,
2013-01-11 12:23:00,34.8,34.5,29.43,SSE,163,5.0,7.0,99,0.00,,,0.03,vanprod-2.3,2013-01-11 18:23:00,
2013-01-11 12:28:00,34.7,34.4,29.43,South,184,3.0,3.0,99,0.00,,,0.03,vanprod-2.3,2013-01-11 18:28:00,
2013-01-11 12:33:00,34.7,34.4,29.43,South,174,4.0,4.0,99,0.00,,,0.03,vanprod-2.3,2013-01-11 18:33:00,
2013-01-11 12:38:00,34.7,34.4,29.43,South,174,2.0,3.0,99,0.00,,,0.03,vanprod-2.3,2013-01-11 18:38:00,
2013-01-11 12:43:00,34.5,34.2,29.42,South,174,2.0,2.0,99,0.00,,,0.03,vanprod-2.3,2013-01-11 18:43:00,
2013-01-11 12:48:00,34.7,34.4,29.42,South,174,3.0,3.0,99,0.00,,,0.03,vanprod-2.3,2013-01-11 18:48:00,
2013-01-11 12:53:00,34.7,34.4,29.42,South,174,3.0,6.0,99,0.00,,,0.03,vanprod-2.3,2013-01-11 18:53:00,
2013-01-11 12:58:00,34.7,34.4,29.41,South,181,4.0,4.0,99,0.00,,,0.03,vanprod-2.3,2013-01-11 18:58:00,
2013-01-11 13:03:00,34.7,34.4,29.41,SE,131,3.0,3.0,99,0.00,,,0.03,vanprod-2.3,2013-01-11 19:03:00,
2013-01-11 13:08:00,34.7,34.4,29.41,SE,141,3.0,3.0,99,0.00,,,0.03,vanprod-2.3,2013-01-11 19:08:00,
2013-01-11 13:13:00,34.7,34.4,29.41,SSE,151,4.0,4.0,99,0.00,,,0.03,vanprod-2.3,2013-01-11 19:13:00,
2013-01-11 13:18:00,34.7,34.4,29.41,SSE,152,3.0,3.0,99,0.00,,,0.03,vanprod-2.3,2013-01-11 19:18:00,
2013-01-11 13:23:00,34.7,34.4,29.41,SSE,152,3.0,3.0,99,0.00,,,0.03,vanprod-2.3,2013-01-11 19:23:00,
2013-01-11 13:28:00,34.7,34.4,29.41,SSE,161,3.0,3.0,99,0.00,,,0.03,vanprod-2.3,2013-01-11 19:28:00,
2013-01-11 13:33:00,34.7,34.4,29.40,SSE,164,3.0,4.0,99,0.00,,,0.03,vanprod-2.3,2013-01-11 19:33:00,
2013-01-11 13:38:00,34.7,34.4,29.40,SSE,164,3.0,6.0,99,0.00,,,0.03,vanprod-2.3,2013-01-11 19:38:00,
2013-01-11 13:43:00,34.8,34.5,29.40,SSE,164,2.0,3.0,99,0.00,,,0.03,vanprod-2.3,2013-01-11 19:43:00,
2013-01-11 13:48:00,34.8,34.5,29.40,SSE,164,1.0,0.0,99,0.00,,,0.03,vanprod-2.3,2013-01-11 19:48:00,
2013-01-11 13:53:00,35.0,34.7,29.40,SSE,164,2.0,3.0,99,0.00,,,0.03,vanprod-2.3,2013-01-11 19:53:00,
2013-01-11 13:58:00,35.0,34.7,29.39,SSE,164,1.0,1.0,99,0.00,,,0.03,vanprod-2.3,2013-01-11 19:58:00,
2013-01-11 14:03:00,35.0,34.7,29.40,SSE,164,4.0,4.0,99,0.00,,,0.03,vanprod-2.3,2013-01-11 20:03:00,
2013-01-11 14:08:00,35.0,34.7,29.39,SSE,167,2.0,0.0,99,0.00,,,0.03,vanprod-2.3,2013-01-11 20:08:00,
2013-01-11 14:13:00,35.0,34.7,29.40,SSE,167,2.0,2.0,99,0.00,,,0.03,vanprod-2.3,2013-01-11 20:13:00,
2013-01-11 14:18:00,34.8,34.5,29.39,SSE,167,3.0,3.0,99,0.00,,,0.03,vanprod-2.3,2013-01-11 20:18:00,
2013-01-11 14:23:00,35.0,34.7,29.39,SSE,167,1.0,1.0,99,0.00,,,0.03,vanprod-2.3,2013-01-11 20:23:00,
2013-01-11 14:28:00,35.0,34.7,29.39,SSE,167,1.0,2.0,99,0.00,,,0.03,vanprod-2.3,2013-01-11 20:28:00,
2013-01-11 14:33:00,35.0,34.7,29.39,SSE,167,2.0,2.0,99,0.00,,,0.03,vanprod-2.3,2013-01-11 20:33:00,
2013-01-11 14:38:00,35.0,34.7,29.39,SSE,167,1.0,2.0,99,0.00,,,0.03,vanprod-2.3,2013-01-11 20:38:00,
2013-01-11 14:43:00,35.0,34.7,29.39,SSE,167,1.0,0.0,99,0.00,,,0.03,vanprod-2.3,2013-01-11 20:43:00,
2013-01-11 14:48:00,35.0,34.7,29.39,SSE,167,2.0,2.0,99,0.00,,,0.03,vanprod-2.3,2013-01-11 20:48:00,
2013-01-11 14:53:00,35.0,34.7,29.39,SSE,167,0.0,0.0,99,0.00,,,0.03,vanprod-2.3,2013-01-11 20:53:00,
2013-01-11 14:58:00,35.0,34.7,29.38,SSE,167,1.0,0.0,99,0.00,,,0.03,vanprod-2.3,2013-01-11 20:58:00,
2013-01-11 15:03:00,35.0,34.7,29.39,SSE,167,1.0,0.0,99,0.00,,,0.03,vanprod-2.3,2013-01-11 21:03:00,
2013-01-11 15:08:00,35.0,34.7,29.38,SSE,167,1.0,0.0,99,0.00,,,0.03,vanprod-2.3,2013-01-11 21:08:00,
2013-01-11 15:13:00,34.8,34.5,29.38,SSE,167,2.0,2.0,99,0.00,,,0.03,vanprod-2.3,2013-01-11 21:13:00,
2013-01-11 15:18:00,34.8,34.5,29.39,SSE,167,2.0,2.0,99,0.00,,,0.03,vanprod-2.3,2013-01-11 21:18:00,
2013-01-11 15:23:00,34.8,34.5,29.38,SSE,167,2.0,2.0,99,0.00,,,0.03,vanprod-2.3,2013-01-11 21:23:00,
2013-01-11 15:28:00,34.8,34.5,29.38,SSE,167,1.0,2.0,99,0.00,,,0.03,vanprod-2.3,2013-01-11 21:28:00,
2013-01-11 15:33:00,35.0,34.7,29.38,SSE,167,1.0,0.0,99,0.00,,,0.03,vanprod-2.3,2013-01-11 21:33:00,
2013-01-11 15:38:00,35.0,34.7,29.39,SSE,167,2.0,2.0,99,0.00,,,0.03,vanprod-2.3,2013-01-11 21:38:00,
2013-01-11 15:43:00,35.0,34.7,29.39,SSE,167,0.0,1.0,99,0.00,,,0.03,vanprod-2.3,2013-01-11 21:43:00,
2013-01-11 15:48:00,35.0,34.7,29.39,SSE,167,2.0,2.0,99,0.00,,,0.03,vanprod-2.3,2013-01-11 21:48:00,
2013-01-11 15:53:00,34.8,34.5,29.39,SSE,167,2.0,2.0,99,0.00,,,0.03,vanprod-2.3,2013-01-11 21:53:00,
2013-01-11 15:58:00,34.8,34.5,29.39,South,171,2.0,2.0,99,0.00,,,0.03,vanprod-2.3,2013-01-11 21:58:00,
2013-01-11 16:03:00,34.7,34.4,29.38,South,171,1.0,0.0,99,0.00,,,0.03,vanprod-2.3,2013-01-11 22:03:00,
2013-01-11 16:08:00,34.7,34.4,29.38,South,171,2.0,3.0,99,0.00,,,0.03,vanprod-2.3,2013-01-11 22:08:00,
2013-01-11 16:13:00,34.7,34.4,29.39,South,171,2.0,2.0,99,0.00,,,0.03,vanprod-2.3,2013-01-11 22:13:00,
2013-01-11 16:18:00,34.5,34.2,29.38,South,171,1.0,2.0,99,0.00,,,0.03,vanprod-2.3,2013-01-11 22:18:00,
2013-01-11 16:23:00,34.5,34.2,29.38,South,171,1.0,0.0,99,0.00,,,0.03,vanprod-2.3,2013-01-11 22:23:00,
2013-01-11 16:28:00,34.4,34.1,29.37,South,171,0.0,0.0,99,0.00,,,0.03,vanprod-2.3,2013-01-11 22:28:00,
2013-01-11 16:33:00,34.4,34.1,29.37,South,171,0.0,0.0,99,0.00,,,0.03,vanprod-2.3,2013-01-11 22:33:00,
2013-01-11 16:38:00,34.5,34.2,29.37,South,171,0.0,0.0,99,0.00,,,0.03,vanprod-2.3,2013-01-11 22:38:00,
2013-01-11 16:43:00,34.4,34.1,29.38,South,171,0.0,0.0,99,0.00,,,0.03,vanprod-2.3,2013-01-11 22:43:00,
2013-01-11 16:48:00,34.4,34.1,29.38,South,171,0.0,0.0,99,0.00,,,0.03,vanprod-2.3,2013-01-11 22:48:00,
2013-01-11 16:53:00,34.5,34.2,29.38,South,171,1.0,0.0,99,0.00,,,0.03,vanprod-2.3,2013-01-11 22:53:00,
2013-01-11 16:58:00,34.5,34.2,29.38,South,171,0.0,0.0,99,0.00,,,0.03,vanprod-2.3,2013-01-11 22:58:00,
2013-01-11 17:03:00,34.5,34.2,29.38,South,171,0.0,0.0,99,0.00,,,0.03,vanprod-2.3,2013-01-11 23:03:00,
2013-01-11 17:08:00,34.5,34.2,29.38,South,171,1.0,0.0,99,0.00,,,0.03,vanprod-2.3,2013-01-11 23:08:00,
2013-01-11 17:13:00,34.5,34.2,29.36,South,171,0.0,0.0,99,0.00,,,0.03,vanprod-2.3,2013-01-11 23:13:00,
2013-01-11 17:18:00,34.5,34.2,29.36,South,171,1.0,1.0,99,0.00,,,0.03,vanprod-2.3,2013-01-11 23:18:00,
2013-01-11 17:23:00,34.5,34.2,29.36,South,171,0.0,0.0,99,0.00,,,0.03,vanprod-2.3,2013-01-11 23:23:00,
2013-01-11 17:28:00,34.5,34.2,29.37,South,171,0.0,0.0,99,0.00,,,0.03,vanprod-2.3,2013-01-11 23:28:00,
2013-01-11 17:33:00,34.5,34.2,29.36,South,171,0.0,0.0,99,0.00,,,0.03,vanprod-2.3,2013-01-11 23:33:00,
2013-01-11 17:38:00,34.4,34.1,29.36,South,171,0.0,0.0,99,0.00,,,0.03,vanprod-2.3,2013-01-11 23:38:00,
2013-01-11 17:43:00,34.4,34.1,29.36,South,171,0.0,0.0,99,0.00,,,0.03,vanprod-2.3,2013-01-11 23:43:00,
2013-01-11 17:48:00,34.2,33.9,29.36,South,171,0.0,0.0,99,0.00,,,0.03,vanprod-2.3,2013-01-11 23:48:00,
2013-01-11 17:53:00,34.2,33.9,29.36,South,171,0.0,0.0,99,0.00,,,0.03,vanprod-2.3,2013-01-11 23:53:00,
2013-01-11 17:58:00,34.2,33.9,29.36,South,171,0.0,0.0,99,0.00,,,0.03,vanprod-2.3,2013-01-11 23:58:00,
2013-01-11 18:03:00,34.2,33.9,29.37,South,171,0.0,0.0,99,0.00,,,0.03,vanprod-2.3,2013-01-12 00:03:00,
2013-01-11 18:08:00,34.2,33.9,29.36,South,171,0.0,0.0,99,0.00,,,0.03,vanprod-2.3,2013-01-12 00:08:00,
2013-01-11 18:13:00,34.2,33.9,29.36,South,171,0.0,0.0,99,0.00,,,0.03,vanprod-2.3,2013-01-12 00:13:00,
2013-01-11 18:18:00,34.4,34.1,29.36,South,171,0.0,0.0,99,0.00,,,0.03,vanprod-2.3,2013-01-12 00:18:00,
2013-01-11 18:23:00,34.2,33.9,29.36,South,171,0.0,0.0,99,0.00,,,0.03,vanprod-2.3,2013-01-12 00:23:00,
2013-01-11 18:28:00,34.1,33.8,29.37,South,171,0.0,0.0,99,0.00,,,0.03,vanprod-2.3,2013-01-12 00:28:00,
2013-01-11 18:33:00,33.9,33.6,29.37,South,171,0.0,0.0,99,0.00,,,0.03,vanprod-2.3,2013-01-12 00:33:00,
2013-01-11 18:38:00,33.9,33.6,29.37,South,171,0.0,0.0,99,0.00,,,0.03,vanprod-2.3,2013-01-12 00:38:00,
2013-01-11 18:43:00,34.1,33.8,29.37,South,171,0.0,0.0,99,0.00,,,0.03,vanprod-2.3,2013-01-12 00:43:00,
2013-01-11 18:48:00,33.9,33.6,29.37,South,171,0.0,0.0,99,0.00,,,0.03,vanprod-2.3,2013-01-12 00:48:00,
2013-01-11 18:53:00,33.9,33.6,29.37,South,171,1.0,0.0,99,0.00,,,0.03,vanprod-2.3,2013-01-12 00:53:00,
2013-01-11 18:58:00,33.9,33.6,29.37,South,171,1.0,0.0,99,0.00,,,0.03,vanprod-2.3,2013-01-12 00:58:00,
2013-01-11 19:03:00,33.8,33.5,29.38,South,171,0.0,0.0,99,0.00,,,0.03,vanprod-2.3,2013-01-12 01:03:00,
2013-01-11 19:08:00,33.8,33.3,29.37,South,171,0.0,0.0,98,0.00,,,0.03,vanprod-2.3,2013-01-12 01:08:00,
2013-01-11 19:13:00,33.6,33.1,29.38,South,171,1.0,1.0,98,0.00,,,0.03,vanprod-2.3,2013-01-12 01:13:00,
2013-01-11 19:18:00,33.6,33.1,29.38,South,171,0.0,0.0,98,0.00,,,0.03,vanprod-2.3,2013-01-12 01:18:00,
2013-01-11 19:23:00,33.5,33.0,29.38,South,171,1.0,2.0,98,0.00,,,0.03,vanprod-2.3,2013-01-12 01:23:00,
2013-01-11 19:28:00,33.5,33.0,29.38,South,171,0.0,0.0,98,0.00,,,0.03,vanprod-2.3,2013-01-12 01:28:00,
2013-01-11 19:33:00,33.3,32.8,29.38,South,171,0.0,0.0,98,0.00,,,0.03,vanprod-2.3,2013-01-12 01:33:00,
2013-01-11 19:38:00,33.2,32.7,29.37,South,171,1.0,0.0,98,0.00,,,0.03,vanprod-2.3,2013-01-12 01:38:00,
2013-01-11 19:43:00,33.0,32.5,29.38,South,171,1.0,2.0,98,0.00,,,0.03,vanprod-2.3,2013-01-12 01:43:00,
2013-01-11 19:48:00,32.9,32.4,29.38,SW,217,3.0,4.0,98,0.00,,,0.03,vanprod-2.3,2013-01-12 01:48:00,
2013-01-11 19:53:00,32.2,31.7,29.38,WSW,241,4.0,10.0,98,0.00,,,0.03,vanprod-2.3,2013-01-12 01:53:00,
2013-01-11 19:58:00,30.7,30.0,29.38,NW,320,5.0,5.0,97,0.00,,,0.03,vanprod-2.3,2013-01-12 01:58:00,
2013-01-11 20:03:00,29.9,29.2,29.38,NW,313,5.0,7.0,97,0.00,,,0.03,vanprod-2.3,2013-01-12 02:03:00,
2013-01-11 20:08:00,29.3,28.6,29.39,NW,313,6.0,6.0,97,0.00,,,0.03,vanprod-2.3,2013-01-12 02:08:00,
2013-01-11 20:13:00,28.6,27.9,29.39,NW,324,7.0,7.0,97,0.00,,,0.03,vanprod-2.3,2013-01-12 02:13:00,
2013-01-11 20:18:00,28.3,27.6,29.39,NW,325,5.0,7.0,97,0.00,,,0.03,vanprod-2.3,2013-01-12 02:18:00,
2013-01-11 20:23:00,27.9,27.2,29.39,NNW,329,6.0,6.0,97,0.00,,,0.03,vanprod-2.3,2013-01-12 02:23:00,
2013-01-11 20:28:00,27.4,26.7,29.40,NW,306,7.0,8.0,97,0.00,,,0.03,vanprod-2.3,2013-01-12 02:28:00,
2013-01-11 20:33:00,27.1,26.4,29.40,NNW,327,5.0,8.0,97,0.00,,,0.03,vanprod-2.3,2013-01-12 02:33:00,
2013-01-11 20:38:00,27.0,26.3,29.41,NW,324,5.0,8.0,97,0.00,,,0.03,vanprod-2.3,2013-01-12 02:38:00,
2013-01-11 20:43:00,26.5,25.5,29.41,NW,316,9.0,9.0,96,0.00,,,0.03,vanprod-2.3,2013-01-12 02:43:00,
2013-01-11 20:48:00,25.8,24.8,29.41,NW,324,6.0,6.0,96,0.00,,,0.03,vanprod-2.3,2013-01-12 02:48:00,
2013-01-11 20:53:00,25.3,24.3,29.41,NW,319,5.0,6.0,96,0.00,,,0.03,vanprod-2.3,2013-01-12 02:53:00,
2013-01-11 20:58:00,25.2,24.2,29.41,NW,320,3.0,3.0,96,0.00,,,0.03,vanprod-2.3,2013-01-12 02:58:00,
2013-01-11 21:03:00,25.2,24.2,29.41,NW,322,5.0,7.0,96,0.00,,,0.03,vanprod-2.3,2013-01-12 03:03:00,
2013-01-11 21:08:00,24.9,23.7,29.40,NNW,327,6.0,6.0,95,0.00,,,0.03,vanprod-2.3,2013-01-12 03:08:00,
2013-01-11 21:13:00,24.3,23.1,29.40,NW,316,6.0,6.0,95,0.00,,,0.03,vanprod-2.3,2013-01-12 03:13:00,
2013-01-11 21:18:00,23.9,22.7,29.41,NW,310,6.0,6.0,95,0.00,,,0.03,vanprod-2.3,2013-01-12 03:18:00,
2013-01-11 21:23:00,23.6,22.4,29.41,NW,323,8.0,9.0,95,0.00,,,0.03,vanprod-2.3,2013-01-12 03:23:00,
2013-01-11 21:28:00,23.3,21.8,29.41,NW,310,6.0,6.0,94,0.00,,,0.03,vanprod-2.3,2013-01-12 03:28:00,
2013-01-11 21:33:00,23.0,21.5,29.41,NW,325,6.0,6.0,94,0.00,,,0.03,vanprod-2.3,2013-01-12 03:33:00,
2013-01-11 21:38:00,22.7,21.0,29.42,NW,320,4.0,8.0,93,0.00,,,0.03,vanprod-2.3,2013-01-12 03:38:00,
2013-01-11 21:43:00,22.4,20.7,29.42,NW,321,6.0,6.0,93,0.00,,,0.03,vanprod-2.3,2013-01-12 03:43:00,
2013-01-11 21:48:00,22.2,20.5,29.43,NW,318,4.0,4.0,93,0.00,,,0.03,vanprod-2.3,2013-01-12 03:48:00,
2013-01-11 21:53:00,22.0,20.3,29.43,NW,316,7.0,10.0,93,0.00,,,0.03,vanprod-2.3,2013-01-12 03:53:00,
2013-01-11 21:58:00,21.9,20.2,29.43,WNW,298,6.0,6.0,93,0.00,,,0.03,vanprod-2.3,2013-01-12 03:58:00,
2013-01-11 22:03:00,21.7,19.7,29.44,NNW,339,3.0,8.0,92,0.00,,,0.03,vanprod-2.3,2013-01-12 04:03:00,
2013-01-11 22:08:00,21.6,19.6,29.44,NW,305,5.0,5.0,92,0.00,,,0.03,vanprod-2.3,2013-01-12 04:08:00,
2013-01-11 22:13:00,21.6,19.6,29.44,NW,310,4.0,4.0,92,0.00,,,0.03,vanprod-2.3,2013-01-12 04:13:00,
2013-01-11 22:18:00,21.3,19.3,29.44,NW,324,7.0,12.0,92,0.00,,,0.03,vanprod-2.3,2013-01-12 04:18:00,
2013-01-11 22:23:00,20.9,18.7,29.44,NNW,329,6.0,6.0,91,0.00,,,0.03,vanprod-2.3,2013-01-12 04:23:00,
2013-01-11 22:28:00,20.9,18.7,29.43,NW,314,5.0,10.0,91,0.00,,,0.03,vanprod-2.3,2013-01-12 04:28:00,
2013-01-11 22:33:00,20.8,18.6,29.43,NW,309,7.0,7.0,91,0.00,,,0.03,vanprod-2.3,2013-01-12 04:33:00,
2013-01-11 22:38:00,20.8,18.6,29.42,WNW,300,6.0,6.0,91,0.00,,,0.03,vanprod-2.3,2013-01-12 04:38:00,
2013-01-11 22:43:00,20.9,18.7,29.43,NW,316,4.0,6.0,91,0.00,,,0.03,vanprod-2.3,2013-01-12 04:43:00,
2013-01-11 22:48:00,20.9,18.7,29.44,NW,322,7.0,7.0,91,0.00,,,0.03,vanprod-2.3,2013-01-12 04:48:00,
2013-01-11 22:53:00,20.8,18.6,29.44,NNW,336,5.0,6.0,91,0.00,,,0.03,vanprod-2.3,2013-01-12 04:53:00,
2013-01-11 22:58:00,20.6,18.4,29.45,NW,311,4.0,4.0,91,0.00,,,0.03,vanprod-2.3,2013-01-12 04:58:00,
2013-01-11 23:00:00,20.6,18.4,29.45,NW,311,5.0,13.0,91,0.00,,,0.03,vanprod-2.3,2013-01-12 05:00:00,
2013-01-11 23:01:00,20.5,18.3,29.45,NW,319,5.0,10.0,91,0.00,,,0.03,vanprod-2.3,2013-01-12 05:01:00,
2013-01-11 23:03:00,20.5,18.3,29.45,WNW,300,6.0,11.0,91,0.00,,,0.03,vanprod-2.3,2013-01-12 05:03:00,
2013-01-11 23:08:00,20.1,17.6,29.45,NW,319,5.0,7.0,90,0.00,,,0.03,vanprod-2.3,2013-01-12 05:08:00,
2013-01-11 23:13:00,19.8,17.1,29.45,NNW,328,6.0,10.0,89,0.00,,,0.03,vanprod-2.3,2013-01-12 05:13:00,
2013-01-11 23:18:00,19.8,17.3,29.45,West,277,5.0,7.0,90,0.00,,,0.03,vanprod-2.3,2013-01-12 05:18:00,
2013-01-11 23:23:00,19.7,17.2,29.46,WNW,292,4.0,5.0,90,0.00,,,0.03,vanprod-2.3,2013-01-12 05:23:00,
2013-01-11 23:28:00,19.7,17.5,29.46,NW,323,4.0,6.0,91,0.00,,,0.03,vanprod-2.3,2013-01-12 05:28:00,
2013-01-11 23:33:00,19.2,16.8,29.46,NW,306,5.0,11.0,90,0.00,,,0.03,vanprod-2.3,2013-01-12 05:33:00,
2013-01-11 23:38:00,19.0,16.8,29.47,NW,313,3.0,5.0,91,0.00,,,0.03,vanprod-2.3,2013-01-12 05:38:00,
2013-01-11 23:43:00,19.0,16.8,29.47,NW,304,3.0,6.0,91,0.00,,,0.03,vanprod-2.3,2013-01-12 05:43:00,
2013-01-11 23:47:00,18.7,16.5,29.48,NW,308,3.0,3.0,91,0.00,,,0.03,vanprod-2.3,2013-01-12 05:47:00,
2013-01-11 23:52:00,18.6,16.4,29.47,NW,305,3.0,7.0,91,0.00,,,0.03,vanprod-2.3,2013-01-12 05:52:00,
2013-01-11 23:57:00,18.3,15.9,29.47,NNW,329,4.0,4.0,90,0.00,,,0.03,vanprod-2.3,2013-01-12 05:57:00,